createdAt,value
2019-02-19T00:00:59.086Z,73.23
2019-02-19T00:01:58.882Z,72.97
2019-02-19T00:03:00.591Z,72.99
2019-02-19T00:03:59.151Z,72.62
2019-02-19T00:04:59.004Z,72.61
2019-02-19T00:05:59.131Z,72.31
2019-02-19T00:06:59.021Z,72.51
2019-02-19T00:07:59.023Z,72.57
2019-02-19T00:08:59.009Z,72.6
2019-02-19T00:09:59.081Z,72.56
2019-02-19T00:10:59.110Z,72.38
2019-02-19T00:11:59.644Z,72.46
2019-02-19T00:12:58.954Z,72.77
2019-02-19T00:13:58.860Z,72.31
2019-02-19T00:15:07.693Z,72.18
2019-02-19T00:15:59.077Z,72.09
2019-02-19T00:16:58.981Z,72.43
2019-02-19T00:17:58.938Z,72.67
2019-02-19T00:18:58.891Z,72.9
2019-02-19T00:19:59.001Z,73.62
2019-02-19T00:20:59.111Z,74.32
2019-02-19T00:21:58.854Z,75.09
2019-02-19T00:22:59.128Z,75.58
2019-02-19T00:23:58.943Z,75.55
2019-02-19T00:24:59.036Z,75.16
2019-02-19T00:25:59.043Z,75.35
2019-02-19T00:26:59.047Z,75.14
2019-02-19T00:27:58.793Z,75.3
2019-02-19T00:28:58.929Z,74.64
2019-02-19T00:29:58.965Z,74.78
2019-02-19T00:30:58.974Z,74.61
2019-02-19T00:32:00.556Z,74.44
2019-02-19T00:32:58.522Z,74.72
2019-02-19T00:33:59.588Z,74.69
2019-02-19T00:34:58.999Z,74.86
2019-02-19T00:35:59.171Z,74.66
2019-02-19T00:36:58.787Z,74.9
2019-02-19T00:37:58.736Z,74.45
2019-02-19T00:39:00.578Z,74.69
2019-02-19T00:39:58.930Z,74.51
2019-02-19T00:40:59.575Z,75.13
2019-02-19T00:41:58.944Z,74.57
2019-02-19T00:42:59.052Z,74.66
2019-02-19T00:43:58.960Z,74.71
2019-02-19T00:44:58.919Z,75.34
2019-02-19T00:45:58.986Z,75.51
2019-02-19T00:46:59.000Z,74.99
2019-02-19T00:47:58.677Z,75.96
2019-02-19T00:48:58.667Z,77.06
2019-02-19T00:49:58.995Z,76.05
2019-02-19T00:50:58.678Z,75.84
2019-02-19T00:52:00.530Z,76.39
2019-02-19T00:52:58.925Z,75.35
2019-02-19T00:53:59.025Z,75.07
2019-02-19T00:55:00.266Z,74.64
2019-02-19T00:55:59.445Z,75.33
2019-02-19T00:56:58.857Z,74.79
2019-02-19T00:57:58.694Z,74.68
2019-02-19T00:58:58.666Z,74.23
2019-02-19T00:59:58.904Z,75.12
2019-02-19T01:00:58.691Z,74.75
2019-02-19T01:01:58.993Z,74.35
2019-02-19T01:02:58.686Z,74.08
2019-02-19T01:03:58.888Z,74.35
2019-02-19T01:04:59.103Z,75.17
2019-02-19T01:05:58.903Z,75.66
2019-02-19T01:06:58.699Z,75.92
2019-02-19T01:07:59.016Z,75.57
2019-02-19T01:08:59.534Z,75.43
2019-02-19T01:09:58.670Z,75.31
2019-02-19T01:10:58.775Z,75.29
2019-02-19T01:12:00.503Z,75.32
2019-02-19T01:12:59.062Z,76.11
2019-02-19T01:13:58.669Z,75.98
2019-02-19T01:14:58.962Z,75.75
2019-02-19T01:15:59.254Z,75.89
2019-02-19T01:16:59.808Z,76.01
2019-02-19T01:18:00.485Z,75.81
2019-02-19T01:18:58.624Z,75.31
2019-02-19T01:19:58.992Z,75.05
2019-02-19T01:20:58.978Z,74.97
2019-02-19T01:21:59.007Z,75.35
2019-02-19T01:22:59.213Z,75.18
2019-02-19T01:23:58.677Z,74.7
2019-02-19T01:24:59.109Z,74.43
2019-02-19T01:25:59.036Z,75.19
2019-02-19T01:26:58.619Z,74.65
2019-02-19T01:27:59.053Z,75.22
2019-02-19T01:28:58.953Z,74.84
2019-02-19T01:29:58.986Z,75.39
2019-02-19T01:30:58.712Z,75
2019-02-19T01:31:58.868Z,75.91
2019-02-19T01:32:58.654Z,75.26
2019-02-19T01:33:58.988Z,75.24
2019-02-19T01:34:58.992Z,76.42
2019-02-19T01:35:58.627Z,75.7
2019-02-19T01:36:59.728Z,75.92
2019-02-19T01:37:59.819Z,76.31
2019-02-19T01:38:59.543Z,76.77
2019-02-19T01:39:58.741Z,76.2
2019-02-19T01:40:58.636Z,76.39
2019-02-19T01:41:58.614Z,76.25
2019-02-19T01:42:58.951Z,76.12
2019-02-19T01:43:58.673Z,76.36
2019-02-19T01:44:58.721Z,75.8
2019-02-19T01:45:58.426Z,75.92
2019-02-19T01:46:58.676Z,76.29
2019-02-19T01:47:58.881Z,76.11
2019-02-19T01:48:58.580Z,76.63
2019-02-19T01:49:59.713Z,76.28
2019-02-19T01:50:59.105Z,76.58
2019-02-19T01:51:58.998Z,76.62
2019-02-19T01:52:58.625Z,76.79
2019-02-19T01:53:59.114Z,77.7
2019-02-19T01:54:58.925Z,78.3
2019-02-19T01:55:58.925Z,77.5
2019-02-19T01:56:58.930Z,76.61
2019-02-19T01:58:00.419Z,76.72
2019-02-19T01:58:58.568Z,76.08
2019-02-19T01:59:59.207Z,77.02
2019-02-19T02:00:58.557Z,77.35
2019-02-19T02:01:58.653Z,77.85
2019-02-19T02:02:58.892Z,77.44
2019-02-19T02:03:58.975Z,77.42
2019-02-19T02:04:58.986Z,77.46
2019-02-19T02:05:59.096Z,77.68
2019-02-19T02:06:58.676Z,77.52
2019-02-19T02:07:58.906Z,76.83
2019-02-19T02:09:00.398Z,77.36
2019-02-19T02:09:58.635Z,77.15
2019-02-19T02:10:58.552Z,76.73
2019-02-19T02:11:59.033Z,76.8
2019-02-19T02:12:58.627Z,76.48
2019-02-19T02:13:58.624Z,75.92
2019-02-19T02:14:58.600Z,76.33
2019-02-19T02:15:58.658Z,76.47
2019-02-19T02:16:58.961Z,77.27
2019-02-19T02:17:58.532Z,78.13
2019-02-19T02:18:58.640Z,78.7
2019-02-19T02:19:58.880Z,78.37
2019-02-19T02:20:59.605Z,77.6
2019-02-19T02:21:59.013Z,78.46
2019-02-19T02:22:58.721Z,78.5
2019-02-19T02:23:58.728Z,79.39
2019-02-19T02:24:58.523Z,78.58
2019-02-19T02:25:58.816Z,78.5
2019-02-19T02:26:58.616Z,78.19
2019-02-19T02:27:58.929Z,78.38
2019-02-19T02:29:00.417Z,79.07
2019-02-19T02:29:59.240Z,78.12
2019-02-19T02:30:58.772Z,78.84
2019-02-19T02:31:58.681Z,79.46
2019-02-19T02:32:58.866Z,78.25
2019-02-19T02:33:58.770Z,78.24
2019-02-19T02:34:58.874Z,78.49
2019-02-19T02:35:58.572Z,78.32
2019-02-19T02:36:58.527Z,78.64
2019-02-19T02:37:59.335Z,77.73
2019-02-19T02:38:58.899Z,78.44
2019-02-19T02:39:58.642Z,78.05
2019-02-19T02:40:58.646Z,77.59
2019-02-19T02:41:58.638Z,77.96
2019-02-19T02:42:59.131Z,78.44
2019-02-19T02:43:58.478Z,77.8
2019-02-19T02:44:58.737Z,78.78
2019-02-19T02:45:58.967Z,79.79
2019-02-19T02:46:58.556Z,79.5
2019-02-19T02:48:00.361Z,78.85
2019-02-19T02:48:58.965Z,78.21
2019-02-19T02:49:58.322Z,78.8
2019-02-19T02:50:58.492Z,78.45
2019-02-19T02:51:58.678Z,78.02
2019-02-19T02:52:58.786Z,78.9
2019-02-19T02:53:58.606Z,78.39
2019-02-19T02:54:59.005Z,78.31
2019-02-19T02:55:58.688Z,77.67
2019-02-19T02:56:58.763Z,77.61
2019-02-19T02:57:58.819Z,78.42
2019-02-19T02:58:58.828Z,78.31
2019-02-19T02:59:58.689Z,78.6
2019-02-19T03:01:00.368Z,78.02
2019-02-19T03:01:58.645Z,77.98
2019-02-19T03:02:58.459Z,78.47
2019-02-19T03:03:59.078Z,77.73
2019-02-19T03:04:59.341Z,77.21
2019-02-19T03:05:58.872Z,76.86
2019-02-19T03:06:58.574Z,76.7
2019-02-19T03:07:58.989Z,77.48
2019-02-19T03:08:58.294Z,77.76
2019-02-19T03:09:58.908Z,78.18
2019-02-19T03:10:58.817Z,78.54
2019-02-19T03:11:59.337Z,79.55
2019-02-19T03:12:58.532Z,79.68
2019-02-19T03:13:58.525Z,78.52
2019-02-19T03:14:58.470Z,78.06
2019-02-19T03:16:02.570Z,77.61
2019-02-19T03:17:00.340Z,77.63
2019-02-19T03:17:58.504Z,77.91
2019-02-19T03:18:58.521Z,77.34
2019-02-19T03:19:58.759Z,78.3
2019-02-19T03:20:58.635Z,78.89
2019-02-19T03:21:58.557Z,79.49
2019-02-19T03:22:58.598Z,79.33
2019-02-19T03:23:58.457Z,79.38
2019-02-19T03:24:58.440Z,78.82
2019-02-19T03:25:59.005Z,78.48
2019-02-19T03:26:59.728Z,78
2019-02-19T03:27:58.488Z,77.64
2019-02-19T03:28:58.440Z,77.87
2019-02-19T03:29:58.424Z,78.79
2019-02-19T03:30:59.146Z,79.28
2019-02-19T03:31:58.950Z,78.77
2019-02-19T03:32:58.658Z,78.35
2019-02-19T03:34:00.279Z,77.74
2019-02-19T03:34:58.761Z,78.18
2019-02-19T03:35:59.320Z,77.94
2019-02-19T03:36:58.475Z,77.96
2019-02-19T03:37:58.990Z,77.56
2019-02-19T03:38:58.683Z,77.62
2019-02-19T03:39:59.181Z,77.66
2019-02-19T03:40:58.666Z,77.73
2019-02-19T03:41:58.700Z,78.6
2019-02-19T03:42:58.706Z,78.26
2019-02-19T03:43:58.394Z,78.46
2019-02-19T03:44:58.559Z,78.26
2019-02-19T03:45:58.623Z,78.26
2019-02-19T03:46:58.522Z,78.37
2019-02-19T03:48:00.290Z,77.93
2019-02-19T03:48:58.747Z,78.55
2019-02-19T03:49:58.765Z,77.94
2019-02-19T03:50:58.764Z,78.16
2019-02-19T03:51:58.396Z,77.98
2019-02-19T03:52:58.670Z,77.52
2019-02-19T03:53:58.677Z,78.25
2019-02-19T03:54:58.582Z,77.67
2019-02-19T03:55:58.483Z,77.67
2019-02-19T03:56:58.483Z,78.78
2019-02-19T03:57:58.449Z,78.7
2019-02-19T03:58:58.404Z,77.81
2019-02-19T03:59:58.718Z,78.49
2019-02-19T04:01:00.234Z,78.03
2019-02-19T04:01:58.542Z,78.15
2019-02-19T04:02:59.676Z,78.14
2019-02-19T04:04:00.225Z,77.84
2019-02-19T04:04:58.956Z,78.08
2019-02-19T04:05:58.654Z,78.4
2019-02-19T04:06:58.569Z,78.04
2019-02-19T04:07:58.551Z,78.77
2019-02-19T04:08:59.091Z,78.17
2019-02-19T04:09:59.194Z,78.71
2019-02-19T04:10:59.325Z,78.73
2019-02-19T04:11:59.001Z,78.84
2019-02-19T04:12:58.702Z,79.04
2019-02-19T04:13:59.270Z,79.01
2019-02-19T04:14:58.363Z,79.13
2019-02-19T04:15:58.725Z,79.29
2019-02-19T04:17:00.204Z,79.19
2019-02-19T04:17:58.189Z,78.68
2019-02-19T04:19:00.221Z,78.97
2019-02-19T04:19:58.648Z,78.72
2019-02-19T04:20:58.411Z,78.62
2019-02-19T04:21:58.501Z,78.27
2019-02-19T04:23:00.196Z,77.77
2019-02-19T04:23:58.880Z,78.25
2019-02-19T04:24:58.881Z,78.25
2019-02-19T04:25:58.689Z,78.15
2019-02-19T04:26:58.690Z,78.58
2019-02-19T04:27:58.337Z,79.33
2019-02-19T04:28:58.604Z,79.17
2019-02-19T04:29:59.020Z,79.87
2019-02-19T04:30:58.172Z,80.52
2019-02-19T04:32:00.182Z,80.88
2019-02-19T04:32:58.506Z,80.71
2019-02-19T04:33:58.424Z,80.54
2019-02-19T04:34:58.541Z,80.18
2019-02-19T04:35:58.435Z,80.79
2019-02-19T04:36:58.495Z,81.16
2019-02-19T04:38:00.178Z,80.96
2019-02-19T04:38:58.872Z,80.38
2019-02-19T04:39:58.520Z,79.84
2019-02-19T04:40:58.580Z,79.9
2019-02-19T04:41:58.586Z,79.51
2019-02-19T04:42:58.333Z,79.54
2019-02-19T04:43:58.699Z,79.64
2019-02-19T04:44:58.568Z,79.78
2019-02-19T04:45:58.917Z,79.03
2019-02-19T04:46:58.605Z,79.72
2019-02-19T04:47:59.155Z,79.8
2019-02-19T04:48:58.444Z,79.66
2019-02-19T04:50:00.287Z,79.79
2019-02-19T04:50:58.358Z,80.02
2019-02-19T04:51:58.960Z,79.63
2019-02-19T04:52:58.140Z,80.1
2019-02-19T04:53:58.663Z,79.84
2019-02-19T04:54:58.570Z,79.46
2019-02-19T04:55:58.404Z,79.07
2019-02-19T04:56:58.528Z,78.98
2019-02-19T04:57:58.403Z,78.73
2019-02-19T04:58:59.173Z,78.49
2019-02-19T04:59:58.723Z,78.77
2019-02-19T05:00:58.519Z,78.53
2019-02-19T05:01:58.383Z,78.49
2019-02-19T05:02:58.340Z,78.91
2019-02-19T05:03:58.359Z,79.06
2019-02-19T05:05:00.382Z,78.87
2019-02-19T05:06:00.123Z,79.16
2019-02-19T05:06:58.398Z,79.5
2019-02-19T05:07:58.362Z,79.48
2019-02-19T05:08:58.288Z,80.15
2019-02-19T05:09:58.540Z,80.18
2019-02-19T05:10:58.351Z,80.37
2019-02-19T05:11:58.323Z,79.91
2019-02-19T05:12:58.484Z,79.98
2019-02-19T05:13:58.900Z,79.53
2019-02-19T05:14:58.644Z,79.87
2019-02-19T05:15:58.505Z,80.61
2019-02-19T05:16:58.372Z,80.72
2019-02-19T05:17:58.515Z,81.35
2019-02-19T05:18:58.325Z,81.04
2019-02-19T05:19:58.545Z,80.71
2019-02-19T05:20:58.356Z,80.66
2019-02-19T05:21:58.096Z,80.87
2019-02-19T05:22:58.345Z,80.6
2019-02-19T05:23:58.658Z,80.17
2019-02-19T05:24:58.576Z,80.29
2019-02-19T05:25:58.478Z,80.81
2019-02-19T05:26:58.404Z,80.29
2019-02-19T05:27:59.137Z,80.17
2019-02-19T05:28:58.332Z,80.58
2019-02-19T05:29:58.392Z,80.63
2019-02-19T05:30:58.449Z,80.84
2019-02-19T05:31:58.650Z,80.87
2019-02-19T05:32:58.355Z,80.51
2019-02-19T05:33:58.411Z,80.55
2019-02-19T05:34:58.848Z,80.7
2019-02-19T05:35:58.744Z,80.64
2019-02-19T05:36:58.366Z,80.51
2019-02-19T05:37:58.300Z,80.16
2019-02-19T05:38:59.316Z,80.54
2019-02-19T05:39:58.457Z,80.29
2019-02-19T05:40:58.461Z,80.44
2019-02-19T05:41:58.218Z,80.25
2019-02-19T05:42:58.412Z,80.69
2019-02-19T05:43:58.234Z,80.45
2019-02-19T05:44:58.473Z,80.68
2019-02-19T05:45:58.347Z,80.75
2019-02-19T05:46:58.375Z,80.65
2019-02-19T05:48:00.083Z,80.73
2019-02-19T05:49:00.072Z,80.88
2019-02-19T05:49:58.394Z,80.51
2019-02-19T05:50:58.527Z,80.67
2019-02-19T05:51:58.302Z,79.96
2019-02-19T05:52:58.643Z,79.61
2019-02-19T05:53:58.292Z,80
2019-02-19T05:54:58.311Z,80.25
2019-02-19T05:55:58.314Z,79.52
2019-02-19T05:56:58.994Z,80.22
2019-02-19T05:57:58.223Z,79.76
2019-02-19T05:58:58.476Z,80.12
2019-02-19T05:59:59.614Z,80.06
2019-02-19T06:00:58.498Z,80.22
2019-02-19T06:01:58.379Z,80.95
2019-02-19T06:02:58.605Z,80.78
2019-02-19T06:03:58.192Z,80.19
2019-02-19T06:04:58.517Z,80.11
2019-02-19T06:05:58.424Z,80.19
2019-02-19T06:06:58.229Z,80.08
2019-02-19T06:07:58.644Z,80.32
2019-02-19T06:08:59.754Z,79.75
2019-02-19T06:09:58.559Z,79.44
2019-02-19T06:10:58.664Z,79.82
2019-02-19T06:11:58.823Z,80.22
2019-02-19T06:12:58.267Z,79.5
2019-02-19T06:13:58.576Z,79.48
2019-02-19T06:14:58.588Z,79.52
2019-02-19T06:15:59.173Z,79.43
2019-02-19T06:16:58.848Z,79.5
2019-02-19T06:17:58.894Z,79.99
2019-02-19T06:18:59.726Z,79.15
2019-02-19T06:19:58.516Z,79.67
2019-02-19T06:20:58.422Z,79.16
2019-02-19T06:21:58.302Z,79.61
2019-02-19T06:22:58.756Z,79.01
2019-02-19T06:23:58.200Z,79.45
2019-02-19T06:24:58.314Z,79.74
2019-02-19T06:25:58.455Z,79.85
2019-02-19T06:26:58.166Z,79.86
2019-02-19T06:27:58.545Z,79.6
2019-02-19T06:28:58.159Z,79.51
2019-02-19T06:29:58.272Z,80.03
2019-02-19T06:30:58.301Z,79.52
2019-02-19T06:31:58.267Z,79.18
2019-02-19T06:32:58.855Z,79.68
2019-02-19T06:33:58.267Z,79.56
2019-02-19T06:34:59.422Z,79.52
2019-02-19T06:35:58.519Z,79.06
2019-02-19T06:36:58.377Z,79.04
2019-02-19T06:37:58.213Z,79.33
2019-02-19T06:38:58.437Z,79.08
2019-02-19T06:39:59.889Z,78.81
2019-02-19T06:40:59.792Z,79.36
2019-02-19T06:41:58.383Z,79.81
2019-02-19T06:42:58.147Z,79.37
2019-02-19T06:43:58.581Z,79.4
2019-02-19T06:44:59.993Z,79.56
2019-02-19T06:45:58.368Z,79.52
2019-02-19T06:47:06.488Z,79.42
2019-02-19T06:47:58.129Z,78.8
2019-02-19T06:48:58.408Z,79.77
2019-02-19T06:49:58.508Z,79.84
2019-02-19T06:50:58.291Z,79.68
2019-02-19T06:51:58.294Z,79.8
2019-02-19T06:52:58.928Z,79.56
2019-02-19T06:53:58.172Z,79.7
2019-02-19T06:54:58.364Z,79.8
2019-02-19T06:55:58.134Z,80.36
2019-02-19T06:56:58.162Z,79.48
2019-02-19T06:57:58.391Z,79.86
2019-02-19T06:58:58.143Z,79.22
2019-02-19T06:59:58.268Z,78.87
2019-02-19T07:00:58.582Z,79.53
2019-02-19T07:01:59.000Z,79.76
2019-02-19T07:02:58.290Z,79.63
2019-02-19T07:03:58.519Z,79.72
2019-02-19T07:04:58.407Z,78.98
2019-02-19T07:05:59.973Z,79.15
2019-02-19T07:06:58.203Z,79.07
2019-02-19T07:07:58.213Z,79.27
2019-02-19T07:08:58.340Z,79.45
2019-02-19T07:09:58.501Z,79.29
2019-02-19T07:10:58.378Z,79.48
2019-02-19T07:11:58.936Z,79.12
2019-02-19T07:12:58.368Z,79.58
2019-02-19T07:13:58.367Z,79.76
2019-02-19T07:14:58.110Z,79.67
2019-02-19T07:15:59.405Z,79.48
2019-02-19T07:16:58.120Z,79.84
2019-02-19T07:17:58.118Z,79.56
2019-02-19T07:18:58.513Z,79.83
2019-02-19T07:19:58.212Z,79.27
2019-02-19T07:20:58.259Z,79.33
2019-02-19T07:21:58.416Z,79.41
2019-02-19T07:22:59.046Z,78.94
2019-02-19T07:24:04.318Z,79.98
2019-02-19T07:24:58.297Z,79.66
2019-02-19T07:25:58.447Z,79.36
2019-02-19T07:26:58.097Z,79.38
2019-02-19T07:27:58.353Z,79.19
2019-02-19T07:28:58.184Z,78.87
2019-02-19T07:29:58.133Z,78.84
2019-02-19T07:30:58.110Z,79.28
2019-02-19T07:31:58.251Z,79.78
2019-02-19T07:32:58.206Z,79.79
2019-02-19T07:33:58.228Z,79.38
2019-02-19T07:34:58.509Z,79.19
2019-02-19T07:35:58.718Z,79.61
2019-02-19T07:36:58.729Z,79.09
2019-02-19T07:37:58.186Z,79.42
2019-02-19T07:38:58.223Z,79.89
2019-02-19T07:39:58.360Z,79.91
2019-02-19T07:40:58.348Z,79.96
2019-02-19T07:41:58.901Z,80.51
2019-02-19T07:42:58.067Z,80.64
2019-02-19T07:43:58.255Z,80
2019-02-19T07:44:59.894Z,80.03
2019-02-19T07:45:59.600Z,79.77
2019-02-19T07:46:58.585Z,79.49
2019-02-19T07:47:58.606Z,79.54
2019-02-19T07:48:58.210Z,79.38
2019-02-19T07:49:58.025Z,79.26
2019-02-19T07:50:58.114Z,79.47
2019-02-19T07:51:58.309Z,79.12
2019-02-19T07:52:58.218Z,79.76
2019-02-19T07:53:58.106Z,79.5
2019-02-19T07:54:58.167Z,79.57
2019-02-19T07:55:58.072Z,79.55
2019-02-19T07:56:58.245Z,79.42
2019-02-19T07:57:58.129Z,79.13
2019-02-19T07:58:58.061Z,79.64
2019-02-19T07:59:58.269Z,79.31
2019-02-19T08:00:58.023Z,79.47
2019-02-19T08:01:59.209Z,79.51
2019-02-19T08:02:58.041Z,80.32
2019-02-19T08:03:58.185Z,80.01
2019-02-19T08:04:59.886Z,79.96
2019-02-19T08:05:58.919Z,79.4
2019-02-19T08:06:57.857Z,80.02
2019-02-19T08:07:57.992Z,79.83
2019-02-19T08:08:58.129Z,79.53
2019-02-19T08:09:58.288Z,79.67
2019-02-19T08:10:59.864Z,79.72
2019-02-19T08:11:57.986Z,80.28
2019-02-19T08:12:58.101Z,80.48
2019-02-19T08:13:59.866Z,79.95
2019-02-19T08:14:58.362Z,80.2
2019-02-19T08:15:58.171Z,79.47
2019-02-19T08:16:58.000Z,79.18
2019-02-19T08:17:58.385Z,79.3
2019-02-19T08:18:58.250Z,79.38
2019-02-19T08:19:58.041Z,79.28
2019-02-19T08:20:58.132Z,79.36
2019-02-19T08:21:58.000Z,79.18
2019-02-19T08:22:58.031Z,79.83
2019-02-19T08:23:58.022Z,79.4
2019-02-19T08:24:58.429Z,79.97
2019-02-19T08:25:57.976Z,79.92
2019-02-19T08:26:59.557Z,79.34
2019-02-19T08:27:59.781Z,79.89
2019-02-19T08:29:07.043Z,79.95
2019-02-19T08:29:59.077Z,79.82
2019-02-19T08:30:58.060Z,79.81
2019-02-19T08:31:58.027Z,79.42
2019-02-19T08:32:58.286Z,79.82
2019-02-19T08:33:57.982Z,79.08
2019-02-19T08:34:58.190Z,78.91
2019-02-19T08:35:58.377Z,78.93
2019-02-19T08:36:58.074Z,78.76
2019-02-19T08:37:59.821Z,78.74
2019-02-19T08:38:58.440Z,78.71
2019-02-19T08:39:58.734Z,78.59
2019-02-19T08:40:58.075Z,78.32
2019-02-19T08:41:57.803Z,78.83
2019-02-19T08:42:58.105Z,78.46
2019-02-19T08:43:58.693Z,78.38
2019-02-19T08:44:57.962Z,78.59
2019-02-19T08:45:58.050Z,78.84
2019-02-19T08:46:58.065Z,78.46
2019-02-19T08:47:58.251Z,78.13
2019-02-19T08:48:57.972Z,78.06
2019-02-19T08:49:58.908Z,77.94
2019-02-19T08:50:58.497Z,77.74
2019-02-19T08:51:58.040Z,78.04
2019-02-19T08:52:58.578Z,78.04
2019-02-19T08:53:58.209Z,77.63
2019-02-19T08:54:58.902Z,77.84
2019-02-19T08:55:58.018Z,77.71
2019-02-19T08:56:58.231Z,77.94
2019-02-19T08:57:58.261Z,77.87
2019-02-19T08:58:58.244Z,77.84
2019-02-19T08:59:58.266Z,77.81
2019-02-19T09:00:58.380Z,77.5
2019-02-19T09:01:58.160Z,77.98
2019-02-19T09:02:58.015Z,78.39
2019-02-19T09:03:59.795Z,78.17
2019-02-19T09:04:58.042Z,77.97
2019-02-19T09:05:58.186Z,78.06
2019-02-19T09:06:57.938Z,77.9
2019-02-19T09:07:58.151Z,77.98
2019-02-19T09:08:59.781Z,77.76
2019-02-19T09:09:58.321Z,78.26
2019-02-19T09:10:58.632Z,77.79
2019-02-19T09:11:59.651Z,77.93
2019-02-19T09:12:58.002Z,78.39
2019-02-19T09:13:57.995Z,78.34
2019-02-19T09:14:59.763Z,78.45
2019-02-19T09:15:58.360Z,78.16
2019-02-19T09:16:59.762Z,77.73
2019-02-19T09:17:57.993Z,77.61
2019-02-19T09:18:58.481Z,78.04
2019-02-19T09:19:59.776Z,78.34
2019-02-19T09:20:57.989Z,77.67
2019-02-19T09:21:58.399Z,77.63
2019-02-19T09:22:58.199Z,77.21
2019-02-19T09:23:58.545Z,77.59
2019-02-19T09:24:59.135Z,77.66
2019-02-19T09:25:58.230Z,77.32
2019-02-19T09:26:58.044Z,77.2
2019-02-19T09:27:57.899Z,77.14
2019-02-19T09:28:58.372Z,77.28
2019-02-19T09:29:58.026Z,77.87
2019-02-19T09:30:58.003Z,77.35
2019-02-19T09:31:58.057Z,77.1
2019-02-19T09:32:59.743Z,76.82
2019-02-19T09:33:58.109Z,76.65
2019-02-19T09:34:59.736Z,76.9
2019-02-19T09:35:59.737Z,76.83
2019-02-19T09:36:57.964Z,76.69
2019-02-19T09:37:58.036Z,76.5
2019-02-19T09:38:58.717Z,76.03
2019-02-19T09:39:58.119Z,76.19
2019-02-19T09:40:58.045Z,75.46
2019-02-19T09:41:58.050Z,75.69
2019-02-19T09:42:58.070Z,75.74
2019-02-19T09:43:58.028Z,76.22
2019-02-19T09:44:58.462Z,77.06
2019-02-19T09:45:59.048Z,76.84
2019-02-19T09:46:58.928Z,76.68
2019-02-19T09:48:01.117Z,76.1
2019-02-19T09:48:58.268Z,75.51
2019-02-19T09:49:58.187Z,75.53
2019-02-19T09:50:58.124Z,75.85
2019-02-19T09:51:57.889Z,76.08
2019-02-19T09:53:00.155Z,75.69
2019-02-19T09:53:59.702Z,75.75
2019-02-19T09:54:59.423Z,76.12
2019-02-19T09:55:58.220Z,75.91
2019-02-19T09:56:58.227Z,76.05
2019-02-19T09:57:59.716Z,75.97
2019-02-19T09:58:58.253Z,76.14
2019-02-19T09:59:58.614Z,76.14
2019-02-19T10:00:58.043Z,75.44
2019-02-19T10:01:58.252Z,76.04
2019-02-19T10:02:58.156Z,76.13
2019-02-19T10:03:58.613Z,76.26
2019-02-19T10:04:57.962Z,76.37
2019-02-19T10:05:57.951Z,75.65
2019-02-19T10:06:59.687Z,75.64
2019-02-19T10:07:58.196Z,75.97
2019-02-19T10:08:59.517Z,76.1
2019-02-19T10:09:58.212Z,75.87
2019-02-19T10:10:58.108Z,76.14
2019-02-19T10:11:58.125Z,76.27
2019-02-19T10:12:58.011Z,76.8
2019-02-19T10:13:58.007Z,76.73
2019-02-19T10:14:57.973Z,76.8
2019-02-19T10:15:59.265Z,76.72
2019-02-19T10:16:57.911Z,76.88
2019-02-19T10:17:57.903Z,76.42
2019-02-19T10:18:58.866Z,76.63
2019-02-19T10:19:58.026Z,76.84
2019-02-19T10:20:59.626Z,76.88
2019-02-19T10:21:58.082Z,76.63
2019-02-19T10:22:57.917Z,76.87
2019-02-19T10:23:58.382Z,76.75
2019-02-19T10:24:57.810Z,76.47
2019-02-19T10:25:58.210Z,76.83
2019-02-19T10:26:57.975Z,76.81
2019-02-19T10:27:57.936Z,76.98
2019-02-19T10:28:58.139Z,76.9
2019-02-19T10:29:58.236Z,77.31
2019-02-19T10:30:57.973Z,76.99
2019-02-19T10:31:58.043Z,77.38
2019-02-19T10:32:57.635Z,78.41
2019-02-19T10:33:58.159Z,77.81
2019-02-19T10:34:58.078Z,77.4
2019-02-19T10:35:58.060Z,77.38
2019-02-19T10:36:59.290Z,77.91
2019-02-19T10:37:59.115Z,77.25
2019-02-19T10:38:58.191Z,78.46
2019-02-19T10:39:58.095Z,78.08
2019-02-19T10:40:57.971Z,78.5
2019-02-19T10:41:58.314Z,78.21
2019-02-19T10:42:58.017Z,78.01
2019-02-19T10:43:58.955Z,78.31
2019-02-19T10:44:58.237Z,77.76
2019-02-19T10:45:58.240Z,77.4
2019-02-19T10:46:57.941Z,77.15
2019-02-19T10:47:58.149Z,77.46
2019-02-19T10:48:59.677Z,77.55
2019-02-19T10:49:58.067Z,77.87
2019-02-19T10:50:58.171Z,77.63
2019-02-19T10:51:58.914Z,78.01
2019-02-19T10:52:57.925Z,78.1
2019-02-19T10:53:57.968Z,78.04
2019-02-19T10:54:57.996Z,78.11
2019-02-19T10:55:58.002Z,78.48
2019-02-19T10:56:58.035Z,78.65
2019-02-19T10:57:57.940Z,78.29
2019-02-19T10:58:58.722Z,78.55
2019-02-19T10:59:57.946Z,79.19
2019-02-19T11:00:59.602Z,78.93
2019-02-19T11:01:58.441Z,78.72
2019-02-19T11:02:57.890Z,79.1
2019-02-19T11:03:59.606Z,79.33
2019-02-19T11:04:57.776Z,78.39
2019-02-19T11:05:57.879Z,78.15
2019-02-19T11:06:58.091Z,77.91
2019-02-19T11:07:57.976Z,77.63
2019-02-19T11:08:58.210Z,77.79
2019-02-19T11:09:58.093Z,78.04
2019-02-19T11:10:58.003Z,77.57
2019-02-19T11:11:58.138Z,77.75
2019-02-19T11:12:58.022Z,78.1
2019-02-19T11:13:58.021Z,77.7
2019-02-19T11:14:58.022Z,78.89
2019-02-19T11:15:57.938Z,78.31
2019-02-19T11:16:57.793Z,78.61
2019-02-19T11:17:58.759Z,78.91
2019-02-19T11:18:57.753Z,78.5
2019-02-19T11:19:58.977Z,78.27
2019-02-19T11:20:58.973Z,78.31
2019-02-19T11:21:59.574Z,78.05
2019-02-19T11:22:58.807Z,77.62
2019-02-19T11:23:58.097Z,77.99
2019-02-19T11:24:57.987Z,77.73
2019-02-19T11:25:57.782Z,77.71
2019-02-19T11:26:58.008Z,77.25
2019-02-19T11:27:59.569Z,76.7
2019-02-19T11:28:59.566Z,77.25
2019-02-19T11:29:58.803Z,76.64
2019-02-19T11:30:57.734Z,76.91
2019-02-19T11:31:58.136Z,77.74
2019-02-19T11:32:57.842Z,77.53
2019-02-19T11:33:57.975Z,76.83
2019-02-19T11:34:57.954Z,76.68
2019-02-19T11:35:58.066Z,76.28
2019-02-19T11:36:57.857Z,75.89
2019-02-19T11:37:58.997Z,75.98
2019-02-19T11:38:57.842Z,76.85
2019-02-19T11:39:59.559Z,76.21
2019-02-19T11:40:57.993Z,76.57
2019-02-19T11:41:59.025Z,76.11
2019-02-19T11:42:59.562Z,75.6
2019-02-19T11:43:59.545Z,75.98
2019-02-19T11:44:58.147Z,75.24
2019-02-19T11:45:58.688Z,75.74
2019-02-19T11:46:57.527Z,75.73
2019-02-19T11:47:57.535Z,76.47
2019-02-19T11:48:57.719Z,75.17
2019-02-19T11:49:57.977Z,74.93
2019-02-19T11:50:57.958Z,75.11
2019-02-19T11:51:57.970Z,75.07
2019-02-19T11:52:57.973Z,74.84
2019-02-19T11:53:58.798Z,74.82
2019-02-19T11:54:57.738Z,74.47
2019-02-19T11:55:58.511Z,73.73
2019-02-19T11:56:57.741Z,74.77
2019-02-19T11:57:58.007Z,74.31
2019-02-19T11:58:58.013Z,74.53
2019-02-19T11:59:57.694Z,74.34
2019-02-19T12:00:57.736Z,73.75
2019-02-19T12:01:59.517Z,74.24
2019-02-19T12:02:58.546Z,74.5
2019-02-19T12:03:57.500Z,74.27
2019-02-19T12:04:59.514Z,74.11
2019-02-19T12:05:58.067Z,74.22
2019-02-19T12:06:57.704Z,74.46
2019-02-19T12:07:57.973Z,74.33
2019-02-19T12:08:57.682Z,74.34
2019-02-19T12:09:58.551Z,74.42
2019-02-19T12:10:58.919Z,73.67
2019-02-19T12:11:57.496Z,74.16
2019-02-19T12:12:58.112Z,73.79
2019-02-19T12:13:57.661Z,73.67
2019-02-19T12:14:57.714Z,74
2019-02-19T12:15:57.758Z,73.85
2019-02-19T12:16:58.038Z,73.59
2019-02-19T12:17:57.938Z,73.82
2019-02-19T12:18:57.832Z,73.66
2019-02-19T12:19:57.952Z,73.33
2019-02-19T12:20:57.961Z,73.56
2019-02-19T12:21:57.961Z,73.24
2019-02-19T12:22:58.480Z,73.4
2019-02-19T12:23:58.453Z,73.46
2019-02-19T12:24:58.370Z,73.11
2019-02-19T12:25:59.003Z,73.33
2019-02-19T12:26:57.771Z,73.59
2019-02-19T12:27:57.661Z,73.81
2019-02-19T12:28:58.519Z,73.72
2019-02-19T12:29:57.958Z,73.87
2019-02-19T12:30:58.021Z,73.75
2019-02-19T12:31:58.054Z,74.06
2019-02-19T12:32:57.697Z,73.9
2019-02-19T12:33:57.830Z,73.9
2019-02-19T12:34:57.671Z,74.2
2019-02-19T12:35:57.694Z,74.08
2019-02-19T12:36:57.667Z,74.03
2019-02-19T12:37:57.966Z,73.59
2019-02-19T12:38:57.973Z,73.83
2019-02-19T12:39:57.634Z,73.19
2019-02-19T12:40:58.063Z,73.67
2019-02-19T12:41:57.634Z,73.83
2019-02-19T12:42:57.622Z,73.45
2019-02-19T12:43:57.890Z,74
2019-02-19T12:44:58.652Z,73.52
2019-02-19T12:45:59.692Z,73.7
2019-02-19T12:46:59.461Z,73.76
2019-02-19T12:47:58.546Z,73.86
2019-02-19T12:48:58.965Z,73.72
2019-02-19T12:49:59.462Z,73.07
2019-02-19T12:50:58.064Z,73.1
2019-02-19T12:51:57.964Z,73.46
2019-02-19T12:52:57.703Z,73.09
2019-02-19T12:53:57.651Z,73.02
2019-02-19T12:54:58.184Z,72.99
2019-02-19T12:55:57.998Z,72.99